Flight Track Log - Related Links

Times and Time Zones

All times are in EDT time to prevent confusion due to time zone crossing. See the CPZ5750 flight status page for this flight to view local times or setup timezone preferences in your user account.

Time Position Orientation Groundspeed Altitude Reporting Facility
EDT Latitude Longitude Course Direction KTS MPH feet Rate Location/Type
Thu 08:29:20 PM 42.8125 -73.8553 321° Northwest 210 242 3,100  Level Boston Center
Thu 08:30:21 PM 42.8556 -73.9214 312° West 243 280 5,500 2,704 Climbing Boston Center
Thu 08:31:42 PM 42.9294 -74.0139 318° Northwest 268 308 9,500 2,426 Climbing Boston Center
Thu 08:32:42 PM 42.9928 -74.0892 319° Northwest 291 335 11,200 1,950 Climbing Boston Center
Thu 08:33:42 PM 43.0625 -74.1736 319° Northwest 322 371 13,400 2,300 Climbing Boston Center
Thu 08:34:42 PM 43.1361 -74.2667 317° Northwest 352 405 15,800 2,150 Climbing Boston Center
Thu 08:35:42 PM 43.1758 -74.3875 294° West 352 405 17,700 2,000 Climbing Boston Center
Thu 08:36:42 PM 43.1736 -74.5128 269° West 352 405 19,800 2,000 Climbing Boston Center
Thu 08:37:42 PM 43.1731 -74.6522 270° West 362 417 21,700 1,850 Climbing Boston Center
Thu 08:38:42 PM 43.1744 -74.7947 271° West 367 422 23,500 1,650 Climbing Boston Center
Thu 08:39:42 PM 43.1733 -74.9397 269° West 372 428 25,000 1,450 Climbing Boston Center
Thu 08:40:42 PM 43.1717 -75.0992 269° West 378 435 26,400 1,227 Climbing Boston Center
Thu 08:41:54 PM 43.1694 -75.2814 269° West 390 449 27,700 1,227 Climbing Boston Center
Thu 08:42:54 PM 43.1697 -75.4350 270° West 402 463 29,100 1,600 Climbing Boston Center
Thu 08:43:54 PM 43.1681 -75.5775 269° West 397 457 30,900 1,350 Climbing Boston Center
Thu 08:44:54 PM 43.1681 -75.7197 270° West 392 451 31,800 900 Climbing Boston Center
Thu 08:45:54 PM 43.1661 -75.8619 269° West 387 445 32,700 850 Climbing Boston Center
Thu 08:46:54 PM 43.1636 -76.0072 269° West 382 440 33,500 650 Climbing Boston Center
Thu 08:47:54 PM 43.1614 -76.1467 269° West 382 440 34,000 185 Climbing Boston Center
Thu 08:49:36 PM 43.1467 -76.3828 265° West 388 447 34,000  Level Cleveland Center
Thu 08:50:36 PM 43.1353 -76.5286 264° West 388 447 34,000  Level Cleveland Center
Thu 08:51:36 PM 43.1217 -76.6747 263° West 388 447 34,000  Level Cleveland Center
Thu 08:52:36 PM 43.1061 -76.8378 263° West 388 447 34,000  Level Cleveland Center
Thu 08:53:36 PM 43.1006 -76.9861 267° West 388 447 34,000  Level Cleveland Center
Thu 08:54:36 PM 43.1281 -77.1381 284° West 388 447 34,000  Level Cleveland Center
Thu 08:55:36 PM 43.1553 -77.2875 284° West 400 460 34,000  Level Cleveland Center
Thu 08:56:36 PM 43.1844 -77.4397 285° West 412 474 34,000  Level Cleveland Center
Thu 08:57:36 PM 43.2114 -77.5922 284° West 412 474 34,000  Level Cleveland Center
Thu 08:58:36 PM 43.2361 -77.7450 283° West 412 474 34,000  Level Cleveland Center
Thu 08:59:36 PM 43.2628 -77.8978 284° West 412 474 34,000  Level Cleveland Center
Thu 09:00:36 PM 43.2911 -78.0533 284° West 417 480 34,000  Level Cleveland Center
Thu 09:01:36 PM 43.3153 -78.2094 282° West 417 480 34,000  Level Cleveland Center
Thu 09:02:36 PM 43.3433 -78.3653 284° West 417 480 34,000  Level Cleveland Center
Thu 09:03:36 PM 43.3692 -78.5214 283° West 417 480 34,000  Level Cleveland Center
Thu 09:04:36 PM 43.3947 -78.6778 283° West 423 487 34,000  Level Cleveland Center
Thu 09:05:36 PM 43.4244 -78.8339 285° West 423 487 34,000  Level Cleveland Center
Thu 09:06:54 PM 43.4500 -79.0167 281° West 430 495 34,000  Level Toronto Center
Thu 09:07:54 PM 43.4667 -79.1667 279° West 420 483 34,000  Level Toronto Center
Thu 09:08:54 PM 43.5000 -79.3333 285° West 430 495 34,000  Level Toronto Center
Thu 09:09:54 PM 43.5167 -79.5000 278° West 430 495 34,000  Level Toronto Center
Thu 09:10:54 PM 43.5500 -79.6500 287° West 440 506 34,000  Level Toronto Center
Thu 09:11:54 PM 43.5667 -79.8167 278° West 440 506 34,000  Level Toronto Center
Thu 09:12:54 PM 43.6000 -80.0000 284° West 440 506 34,000  Level Toronto Center
Thu 09:13:54 PM 43.6167 -80.1667 278° West 440 506 34,000  Level Toronto Center
Thu 09:14:54 PM 43.6500 -80.3167 287° West 440 506 34,000  Level Toronto Center
Thu 09:15:54 PM 43.6833 -80.5167 283° West 450 518 34,000  Level Toronto Center
Thu 09:16:54 PM 43.7000 -80.6667 279° West 450 518 34,000  Level Toronto Center
Thu 09:17:54 PM 43.7167 -80.8333 278° West 450 518 34,000  Level Toronto Center
Thu 09:18:54 PM 43.7333 -81.0000 278° West 450 518 34,000  Level Toronto Center
Thu 09:19:54 PM 43.7667 -81.1833 284° West 450 518 34,000  Level Toronto Center
Thu 09:20:54 PM 43.8000 -81.3500 286° West 460 529 34,000  Level Toronto Center
Thu 09:21:54 PM 43.8167 -81.5333 277° West 460 529 34,000  Level Toronto Center
Thu 09:22:54 PM 43.8500 -81.7167 284° West 460 529 34,000  Level Toronto Center
Thu 09:23:54 PM 43.8667 -81.8833 278° West 460 529 34,000  Level Toronto Center
Thu 09:24:54 PM 43.8833 -82.0667 277° West 460 529 34,000  Level Toronto Center
Thu 09:25:54 PM 43.9167 -82.2333 286° West 460 529 34,000  Level Toronto Center
Thu 09:26:54 PM 43.9333 -82.4167 277° West 460 529 34,000  Level Toronto Center
Thu 09:27:54 PM 43.9667 -82.5667 287° West 460 529 34,000  Level Toronto Center
Thu 09:28:30 PM 43.9878 -82.6689 286° West 460 529 34,000  Level Minneapolis Center
Thu 09:29:32 PM 44.0092 -82.8444 280° West 462 532 34,000  Level Minneapolis Center
Thu 09:30:34 PM 44.0317 -83.0175 280° West 459 528 34,000  Level Minneapolis Center
Thu 09:31:48 PM 44.0631 -83.2658 280° West 464 534 34,000  Level Minneapolis Center
Thu 09:32:50 PM 44.0825 -83.4431 279° West 465 535 34,000  Level Minneapolis Center
Thu 09:33:52 PM 44.1036 -83.6214 279° West 467 537 34,000  Level Minneapolis Center
Thu 09:34:54 PM 44.1250 -83.8011 279° West 469 540 34,000  Level Minneapolis Center
Thu 09:35:56 PM 44.1422 -83.9803 278° West 469 540 34,000  Level Minneapolis Center
Thu 09:36:58 PM 44.1644 -84.1578 280° West 467 537 34,000  Level Minneapolis Center
Thu 09:38:00 PM 44.1878 -84.3694 279° West 463 533 34,000  Level Minneapolis Center
Thu 09:39:02 PM 44.2086 -84.5456 279° West 462 532 34,000  Level Minneapolis Center
Thu 09:40:04 PM 44.2275 -84.7217 279° West 462 532 34,000  Level Minneapolis Center
Thu 09:41:06 PM 44.2467 -84.8981 279° West 460 529 34,000  Level Minneapolis Center
Thu 09:42:08 PM 44.2658 -85.0747 279° West 461 531 34,000  Level Minneapolis Center
Thu 09:43:10 PM 44.2844 -85.2492 279° West 459 528 34,000  Level Minneapolis Center
Thu 09:44:12 PM 44.3033 -85.4256 279° West 458 527 34,000  Level Minneapolis Center
Thu 09:45:14 PM 44.3253 -85.6372 278° West 458 527 34,000  Level Minneapolis Center
Thu 09:46:15 PM 44.3433 -85.8147 278° West 459 528 34,000  Level Minneapolis Center
Thu 09:47:17 PM 44.3597 -85.9892 278° West 454 522 34,000  Level Minneapolis Center
Thu 09:48:19 PM 44.3769 -86.1650 278° West 453 521 34,000  Level Minneapolis Center
Thu 09:49:21 PM 44.3936 -86.3392 278° West 450 518 34,000  Level Minneapolis Center
Thu 09:50:22 PM 44.4103 -86.5150 278° West 453 521 34,000  Level Minneapolis Center
Thu 09:51:24 PM 44.4264 -86.6922 277° West 456 525 34,000  Level Minneapolis Center
Thu 09:52:26 PM 44.4428 -86.8694 277° West 458 527 34,000  Level Minneapolis Center
Thu 09:53:27 PM 44.4586 -87.0450 277° West 456 525 34,000  Level Minneapolis Center
Thu 09:54:29 PM 44.4778 -87.2553 277° West 454 522 34,000  Level Minneapolis Center
Thu 09:55:31 PM 44.4928 -87.4303 277° West 452 520 34,000  Level Minneapolis Center
Thu 09:56:32 PM 44.5086 -87.6067 277° West 456 525 34,000  Level Minneapolis Center
Thu 09:57:34 PM 44.5219 -87.7825 276° West 455 524 34,000  Level Minneapolis Center
Thu 09:58:36 PM 44.5356 -87.9542 276° West 449 517 34,000  Level Minneapolis Center
Thu 09:59:37 PM 44.5497 -88.1278 277° West 449 517 34,000  Level Minneapolis Center
Thu 10:00:39 PM 44.5714 -88.3286 279° West 449 517 34,000  Level Minneapolis Center
Thu 10:01:41 PM 44.5906 -88.4986 279° West 445 512 34,000  Level Minneapolis Center
Thu 10:02:43 PM 44.6100 -88.6708 279° West 446 513 34,000  Level Minneapolis Center
Thu 10:03:44 PM 44.6292 -88.8406 279° West 443 510 34,000  Level Minneapolis Center
Thu 10:04:46 PM 44.6486 -89.0092 279° West 441 507 34,000  Level Minneapolis Center
Thu 10:05:48 PM 44.6678 -89.1806 279° West 443 510 34,000  Level Minneapolis Center
Thu 10:06:49 PM 44.6892 -89.3772 279° West 441 507 34,000  Level Minneapolis Center
Thu 10:07:51 PM 44.7072 -89.5478 279° West 442 509 34,000  Level Minneapolis Center
Thu 10:08:52 PM 44.7258 -89.7189 279° West 443 510 34,000 -195 Level Minneapolis Center
Thu 10:09:54 PM 44.7447 -89.8919 279° West 448 516 33,600 -968 Descending Minneapolis Center
Thu 10:10:56 PM 44.7614 -90.0639 278° West 445 512 32,000 -780 Descending Minneapolis Center
Thu 10:11:57 PM 44.7833 -90.2344 280° West 444 511 32,000  Level Minneapolis Center
Thu 10:12:59 PM 44.8061 -90.4047 281° West 444 511 32,000 -780 Level Minneapolis Center
Thu 10:14:00 PM 44.8292 -90.5747 281° West 446 513 30,400 -1,623 Descending Minneapolis Center
Thu 10:15:01 PM 44.8522 -90.7486 281° West 450 518 28,700 -2,000 Descending Minneapolis Center
Thu 10:16:03 PM 44.8814 -90.9575 281° West 456 525 26,300 -2,177 Descending Minneapolis Center
Thu 10:17:05 PM 44.9025 -91.1258 280° West 446 513 24,200 -2,049 Descending Minneapolis Center
Thu 10:18:06 PM 44.9236 -91.2906 280° West 434 499 22,100 -1,951 Descending Minneapolis Center
Thu 10:19:08 PM 44.9433 -91.4478 280° West 419 482 20,200 -1,644 Descending Minneapolis Center
Thu 10:20:21 PM 44.9636 -91.6028 281° West 408 470 18,400 -1,689 Descending Minneapolis Center
Thu 10:21:23 PM 44.9867 -91.7828 280° West 394 453 16,400 -2,032 Descending Minneapolis Center
Thu 10:22:25 PM 45.0094 -91.9606 280° West 383 441 14,200 -1,951 Descending Minneapolis Center
Thu 10:23:26 PM 45.0264 -92.1033 280° West 372 428 12,400 -1,525 Descending Minneapolis Center
Thu 10:24:27 PM 45.0403 -92.2153 280° West 364 419 11,100 -622 Descending Minneapolis Center
Thu 10:25:41 PM 45.0350 -92.3825 268° West 364 419 11,000 -44 Descending Minneapolis Center
Thu 10:26:43 PM 45.0083 -92.5494 257° West 364 419 11,000  Level Minneapolis Center
Thu 10:27:44 PM 44.9853 -92.6894 257° West 367 422 11,000  Level Minneapolis Center
Thu 10:28:46 PM 44.9633 -92.8269 257° West 362 417 11,000 -244 Level Minneapolis Center
Thu 10:29:47 PM 44.9422 -92.9567 257° West 342 394 10,500 -1,033 Descending Minneapolis Center
Thu 10:30:48 PM 44.9356 -93.0858 266° West 285 328 8,900 -1,756 Descending Minneapolis Center
Thu 10:31:50 PM 44.9744 -93.1781 301° West 278 320 6,900 -1,805 Descending Minneapolis Center
Thu 10:32:51 PM 45.0169 -93.2683 304° West 277 319 5,200 -1,366 Descending Minneapolis Center
Thu 10:33:53 PM 45.0303 -93.3528 283° West 239 275 4,100 -1,073 Descending Minneapolis Center
Thu 10:34:54 PM 44.9797 -93.3908 208° Southwest 206 237 3,000 -1,082 Descending Minneapolis Center

Login

Don't have an account? Register now (free) for customized features, flight alerts, and more!